Time;durP1;ratioP1;P1;durP2;ratioP2;P2;SDS_P1;SDS_P2;PMS_P1;PMS_P2;Temp;Humidity;BMP_temperature;BMP_pressure;BME280_temperature;BME280_humidity;BME280_pressure;Samples;Min_cycle;Max_cycle;Signal;HPM_P1;HPM_P2
2021/03/13 00:00:48;;;;;;;6.38;1.98;;;12.50;43.50;;;;;;6129733;29;20036;-76
2021/03/13 00:03:49;;;;;;;3.75;1.83;;;12.50;43.70;;;;;;6130747;29;20035;-78
2021/03/13 00:06:50;;;;;;;6.32;2.65;;;12.40;43.80;;;;;;6130497;29;20040;-78
2021/03/13 00:09:51;;;;;;;7.50;2.05;;;12.40;44.00;;;;;;6114441;29;20040;-78
2021/03/13 00:12:52;;;;;;;5.00;1.58;;;12.30;44.30;;;;;;6127977;29;20047;-78
2021/03/13 00:15:53;;;;;;;4.88;2.05;;;12.30;44.40;;;;;;6127968;29;20039;-77
2021/03/13 00:18:54;;;;;;;4.07;1.90;;;12.20;44.40;;;;;;6127419;29;20114;-79
2021/03/13 00:21:55;;;;;;;5.30;1.70;;;12.20;44.60;;;;;;6127511;29;20042;-77
2021/03/13 00:24:56;;;;;;;4.80;1.80;;;12.20;44.70;;;;;;6112175;29;20058;-78
2021/03/13 00:27:57;;;;;;;5.30;1.98;;;12.20;44.70;;;;;;6129458;29;20032;-78
2021/03/13 00:30:59;;;;;;;4.82;1.52;;;12.10;44.90;;;;;;6112057;29;20036;-77
2021/03/13 00:34:00;;;;;;;2.38;1.35;;;12.10;45.00;;;;;;6129160;29;20039;-79
2021/03/13 00:37:01;;;;;;;4.93;1.80;;;12.10;45.10;;;;;;6128655;29;20469;-77
2021/03/13 00:40:04;;;;;;;5.05;1.95;;;12.00;45.30;;;;;;6106695;29;20055;-77
2021/03/13 00:43:07;;;;;;;3.70;1.77;;;12.00;45.30;;;;;;6128831;29;20133;-78
2021/03/13 00:46:09;;;;;;;7.68;1.63;;;12.10;45.20;;;;;;6129596;29;20134;-77
2021/03/13 00:49:10;;;;;;;5.53;1.83;;;12.10;45.10;;;;;;6108471;29;20047;-77
2021/03/13 00:52:11;;;;;;;11.07;2.20;;;12.10;45.00;;;;;;6107307;29;20063;-77
2021/03/13 00:55:13;;;;;;;6.03;2.40;;;12.20;45.00;;;;;;6119265;29;20461;-77
2021/03/13 00:58:19;;;;;;;7.60;2.17;;;12.30;44.90;;;;;;6119260;29;20050;-77
2021/03/13 01:01:46;;;;;;;5.22;2.00;;;12.30;44.90;;;;;;6127190;29;20040;-77
2021/03/13 01:04:47;;;;;;;4.18;2.33;;;12.30;45.00;;;;;;6127242;29;20036;-77
2021/03/13 01:07:49;;;;;;;5.82;1.73;;;12.20;45.00;;;;;;6126735;29;20023;-77
2021/03/13 01:10:52;;;;;;;4.18;1.80;;;12.20;45.00;;;;;;6127479;29;20050;-78
2021/03/13 01:13:57;;;;;;;7.30;2.78;;;12.20;45.10;;;;;;6126784;29;20373;-78
2021/03/13 01:17:04;;;;;;;5.30;2.33;;;12.10;45.40;;;;;;6112596;29;20410;-78
2021/03/13 01:20:08;;;;;;;4.32;2.42;;;12.10;45.70;;;;;;6127550;29;20043;-77
2021/03/13 01:23:09;;;;;;;10.10;2.50;;;12.00;45.90;;;;;;6126470;29;20039;-77
2021/03/13 01:26:10;;;;;;;6.20;2.28;;;12.00;46.20;;;;;;6126271;29;20051;-77
2021/03/13 01:29:12;;;;;;;6.97;2.60;;;12.00;46.40;;;;;;6111117;29;20036;-77
2021/03/13 01:32:24;;;;;;;5.35;2.30;;;12.00;46.60;;;;;;6126616;29;20078;-78
2021/03/13 01:35:26;;;;;;;6.10;2.17;;;11.90;46.70;;;;;;6110713;29;20032;-77
2021/03/13 01:38:27;;;;;;;8.05;2.58;;;11.90;47.50;;;;;;6126838;29;20032;-78
2021/03/13 01:41:29;;;;;;;7.82;2.58;;;11.90;47.00;;;;;;6111032;29;20039;-79
2021/03/13 01:44:30;;;;;;;5.85;2.20;;;11.80;47.00;;;;;;6126694;29;20466;-78
2021/03/13 01:47:32;;;;;;;4.35;1.90;;;11.80;46.90;;;;;;6126472;29;20118;-79
2021/03/13 01:50:38;;;;;;;6.07;2.78;;;11.80;46.80;;;;;;6110974;29;20492;-79
2021/03/13 01:53:39;;;;;;;4.20;2.40;;;11.80;47.20;;;;;;6093736;29;20043;-79
2021/03/13 01:56:43;;;;;;;7.78;2.92;;;11.70;47.20;;;;;;6093609;29;20107;-78
2021/03/13 01:59:45;;;;;;;8.73;3.33;;;11.80;47.40;;;;;;6126108;29;20046;-77
2021/03/13 02:02:47;;;;;;;8.45;2.95;;;11.70;47.70;;;;;;6094668;29;20032;-76
2021/03/13 02:05:55;;;;;;;8.65;3.00;;;11.70;47.90;;;;;;6126213;29;20366;-77
2021/03/13 02:09:28;;;;;;;9.18;2.92;;;11.70;48.10;;;;;;6096443;29;20062;-77
2021/03/13 02:12:42;;;;;;;10.73;2.80;;;11.60;48.20;;;;;;6138805;29;20496;-77
2021/03/13 02:16:09;;;;;;;6.30;3.15;;;11.50;48.20;;;;;;6121476;29;20044;-78
2021/03/13 02:19:42;;;;;;;11.77;3.53;;;11.50;48.30;;;;;;6120750;29;20058;-78
2021/03/13 02:22:47;;;;;;;10.13;3.28;;;11.50;48.40;;;;;;6026955;29;20129;-79
2021/03/13 02:26:23;;;;;;;7.75;3.25;;;11.50;48.30;;;;;;6017324;29;20049;-78
2021/03/13 02:29:51;;;;;;;12.40;3.05;;;11.40;48.30;;;;;;6017189;29;20041;-78
2021/03/13 02:33:29;;;;;;;8.90;3.30;;;11.40;48.50;;;;;;6030264;29;20042;-78
2021/03/13 02:36:51;;;;;;;10.65;3.33;;;11.40;48.50;;;;;;6017864;29;20438;-78
2021/03/13 02:39:54;;;;;;;8.13;3.65;;;11.40;48.80;;;;;;6024748;29;20037;-78
2021/03/13 02:43:00;;;;;;;8.70;3.42;;;11.30;48.90;;;;;;6024740;29;20508;-78
2021/03/13 02:46:02;;;;;;;7.53;3.30;;;11.30;49.10;;;;;;6016558;29;20041;-78
2021/03/13 02:49:05;;;;;;;8.32;3.78;;;11.20;49.10;;;;;;6016855;29;20572;-79
2021/03/13 02:52:07;;;;;;;10.32;3.70;;;11.30;49.20;;;;;;6026571;29;20357;-79
2021/03/13 02:55:14;;;;;;;9.98;3.80;;;11.30;49.30;;;;;;6007374;29;20367;-78
2021/03/13 02:58:19;;;;;;;10.95;4.22;;;11.20;49.40;;;;;;6092603;28;20183;-79
2021/03/13 03:01:26;;;;;;;8.65;4.22;;;11.20;49.40;;;;;;6133832;28;20031;-77
2021/03/13 03:04:28;;;;;;;9.73;3.78;;;11.10;49.40;;;;;;6151627;28;20477;-78
2021/03/13 03:07:30;;;;;;;12.20;3.65;;;11.10;49.40;;;;;;6134523;29;20036;-78
2021/03/13 03:10:42;;;;;;;8.93;2.80;;;11.10;49.60;;;;;;6134181;29;20102;-78
2021/03/13 03:13:44;;;;;;;6.20;2.83;;;11.10;49.50;;;;;;6118128;29;20032;-77
2021/03/13 03:16:48;;;;;;;5.93;2.42;;;11.10;49.40;;;;;;6134529;28;20042;-77
2021/03/13 03:19:57;;;;;;;8.57;2.72;;;11.00;49.50;;;;;;6135004;28;20074;-77
2021/03/13 03:23:00;;;;;;;6.05;1.90;;;11.00;49.50;;;;;;6137651;28;20039;-77
2021/03/13 03:26:01;;;;;;;4.65;2.10;;;11.00;49.40;;;;;;6135676;28;20059;-77
2021/03/13 03:29:02;;;;;;;2.53;1.33;;;10.90;49.30;;;;;;6111253;28;20053;-77
2021/03/13 03:32:04;;;;;;;5.00;1.65;;;10.90;49.30;;;;;;6121840;28;20039;-77
2021/03/13 03:35:06;;;;;;;2.67;1.33;;;10.90;49.30;;;;;;6123680;28;20046;-77
2021/03/13 03:38:10;;;;;;;4.75;1.67;;;10.80;49.40;;;;;;6116863;28;20110;-77
2021/03/13 03:41:11;;;;;;;4.05;1.88;;;10.80;49.40;;;;;;6135461;29;20469;-77
2021/03/13 03:44:20;;;;;;;2.83;1.58;;;10.70;49.50;;;;;;6135373;29;20035;-76
2021/03/13 03:47:32;;;;;;;4.90;1.92;;;10.60;49.70;;;;;;6134081;29;20492;-77
2021/03/13 03:50:39;;;;;;;5.65;2.20;;;10.60;49.90;;;;;;6125241;29;20040;-77
2021/03/13 03:53:50;;;;;;;7.65;2.25;;;10.50;50.10;;;;;;6118702;29;20043;-77
2021/03/13 03:56:53;;;;;;;6.20;2.65;;;10.50;50.30;;;;;;6127332;29;20035;-77
2021/03/13 03:59:56;;;;;;;5.18;2.28;;;10.60;50.30;;;;;;6108984;29;20051;-77
2021/03/13 04:02:58;;;;;;;5.63;2.30;;;10.60;50.40;;;;;;6125555;29;20370;-77
2021/03/13 04:06:01;;;;;;;11.15;2.65;;;10.60;50.60;;;;;;6116972;29;20115;-79
2021/03/13 04:09:04;;;;;;;6.68;3.22;;;10.60;50.80;;;;;;6125744;29;20051;-76
2021/03/13 04:12:08;;;;;;;8.48;2.78;;;10.60;51.00;;;;;;6110617;29;20106;-77
2021/03/13 04:15:11;;;;;;;7.03;2.88;;;10.50;51.10;;;;;;6109223;29;20119;-77
2021/03/13 04:18:12;;;;;;;6.70;2.33;;;10.50;51.40;;;;;;6126501;29;20043;-77
2021/03/13 04:21:14;;;;;;;6.80;2.47;;;10.50;51.60;;;;;;6125297;29;20039;-77
2021/03/13 04:24:16;;;;;;;6.28;3.13;;;10.40;51.70;;;;;;6124644;29;20102;-77
2021/03/13 04:27:20;;;;;;;8.30;2.55;;;10.40;51.60;;;;;;6125555;29;20039;-77
2021/03/13 04:30:21;;;;;;;5.10;2.17;;;10.40;51.70;;;;;;6104106;29;20517;-77
2021/03/13 04:33:23;;;;;;;4.03;1.77;;;10.40;51.90;;;;;;6125371;29;20043;-77
2021/03/13 04:36:30;;;;;;;6.40;1.85;;;10.40;51.90;;;;;;6131480;29;20394;-78
2021/03/13 04:39:32;;;;;;;2.53;1.30;;;10.30;51.50;;;;;;6124053;29;20339;-79
2021/03/13 04:42:33;;;;;;;5.20;1.45;;;10.30;51.30;;;;;;6123844;29;20461;-78
2021/03/13 04:45:34;;;;;;;7.55;1.27;;;10.20;51.00;;;;;;6108937;29;20042;-78
2021/03/13 04:48:37;;;;;;;6.95;1.70;;;10.20;51.00;;;;;;6108323;29;20442;-78
2021/03/13 04:51:39;;;;;;;4.63;1.38;;;10.20;50.90;;;;;;6088683;29;20468;-79
2021/03/13 04:54:40;;;;;;;3.80;1.33;;;10.20;50.80;;;;;;6124843;29;20066;-79
2021/03/13 04:57:41;;;;;;;2.00;1.05;;;10.20;50.70;;;;;;6108768;29;20118;-79
2021/03/13 05:00:45;;;;;;;6.82;1.20;;;10.20;50.50;;;;;;6122203;29;20063;-79
2021/03/13 05:03:46;;;;;;;5.22;1.08;;;10.20;50.30;;;;;;6108712;29;20036;-79
2021/03/13 05:06:47;;;;;;;2.83;1.08;;;10.10;50.20;;;;;;6123866;29;20437;-78
2021/03/13 05:09:47;;;;;;;2.30;1.00;;;10.10;50.00;;;;;;6123316;29;20378;-77
2021/03/13 05:12:49;;;;;;;5.00;1.42;;;10.10;50.00;;;;;;6121691;29;20115;-77
2021/03/13 05:15:50;;;;;;;7.85;1.30;;;10.10;50.10;;;;;;6099665;29;20062;-77
2021/03/13 05:18:51;;;;;;;2.65;1.50;;;10.00;50.10;;;;;;6125635;29;20043;-77
2021/03/13 05:21:53;;;;;;;4.68;1.17;;;10.00;50.20;;;;;;6126178;29;20118;-78
2021/03/13 05:24:54;;;;;;;3.40;1.40;;;10.00;50.30;;;;;;6126553;29;20722;-77
2021/03/13 05:27:55;;;;;;;6.45;1.30;;;10.00;50.30;;;;;;6125259;29;20036;-77
2021/03/13 05:30:56;;;;;;;4.88;1.77;;;9.90;50.30;;;;;;6109654;29;20115;-77
2021/03/13 05:33:57;;;;;;;7.72;1.63;;;9.90;50.30;;;;;;6125065;29;20353;-77
2021/03/13 05:36:58;;;;;;;3.35;1.13;;;9.90;50.30;;;;;;6126014;29;20051;-79
2021/03/13 05:39:59;;;;;;;3.78;1.40;;;10.00;50.30;;;;;;6124682;29;20456;-77
2021/03/13 05:42:59;;;;;;;0.80;0.80;;;10.00;50.20;;;;;;6126142;29;20044;-77
2021/03/13 05:46:02;;;;;;;3.67;1.00;;;10.00;50.30;;;;;;6123794;29;20036;-77
2021/03/13 05:49:04;;;;;;;2.78;0.93;;;10.00;50.10;;;;;;6126076;29;20432;-77
2021/03/13 05:52:07;;;;;;;1.85;0.90;;;10.00;50.10;;;;;;6125373;29;20386;-77
2021/03/13 05:55:09;;;;;;;5.40;0.95;;;10.00;50.00;;;;;;6125248;29;20039;-77
2021/03/13 05:58:11;;;;;;;2.60;1.25;;;10.00;49.90;;;;;;6100610;29;20035;-77
2021/03/13 06:01:12;;;;;;;2.08;1.08;;;10.00;49.80;;;;;;6112661;29;20362;-78
2021/03/13 06:04:13;;;;;;;2.05;0.98;;;10.00;49.80;;;;;;6129732;29;20086;-78
2021/03/13 06:07:17;;;;;;;3.80;0.73;;;10.00;49.70;;;;;;6129939;29;20119;-77
2021/03/13 06:10:18;;;;;;;4.50;1.33;;;9.90;49.70;;;;;;6129658;29;20044;-80
2021/03/13 06:13:19;;;;;;;10.48;1.58;;;9.90;49.80;;;;;;6114134;29;20047;-77
2021/03/13 06:16:22;;;;;;;2.50;1.10;;;9.90;49.80;;;;;;6129127;29;20071;-77
2021/03/13 06:19:23;;;;;;;3.85;1.05;;;9.90;49.90;;;;;;6129364;29;20048;-78
2021/03/13 06:22:36;;;;;;;0.95;0.65;;;9.80;49.90;;;;;;6129440;29;20043;-77
2021/03/13 06:25:39;;;;;;;2.58;0.70;;;9.80;49.90;;;;;;6111755;29;20046;-78
2021/03/13 06:28:40;;;;;;;4.30;1.00;;;9.80;49.90;;;;;;6122468;29;20028;-79
2021/03/13 06:31:41;;;;;;;3.40;1.00;;;9.80;50.00;;;;;;6110855;29;20035;-78
2021/03/13 06:34:43;;;;;;;6.90;1.02;;;9.80;50.00;;;;;;6112090;29;20410;-79
2021/03/13 06:37:44;;;;;;;4.63;1.15;;;9.80;50.10;;;;;;6112038;29;20031;-79
2021/03/13 06:40:46;;;;;;;2.85;1.08;;;9.80;50.20;;;;;;6108399;29;20035;-78
2021/03/13 06:43:49;;;;;;;9.18;1.42;;;9.80;50.20;;;;;;6112721;29;20055;-79
2021/03/13 06:46:50;;;;;;;3.33;0.98;;;9.80;50.20;;;;;;6123526;29;20040;-78
2021/03/13 06:50:10;;;;;;;4.13;1.17;;;9.80;50.10;;;;;;6133204;28;20401;-78
2021/03/13 06:53:11;;;;;;;4.25;1.20;;;9.70;50.10;;;;;;6139078;28;20480;-78
2021/03/13 06:56:13;;;;;;;5.63;1.25;;;9.80;50.10;;;;;;6116196;28;20031;-78
2021/03/13 06:59:34;;;;;;;3.88;1.40;;;9.80;50.10;;;;;;6134984;29;20465;-79
2021/03/13 07:02:34;;;;;;;1.80;0.93;;;9.80;50.10;;;;;;6131160;28;20037;-79
2021/03/13 07:05:40;;;;;;;2.60;1.10;;;9.80;50.00;;;;;;6122765;29;20058;-78
2021/03/13 07:08:44;;;;;;;0.98;0.77;;;9.80;50.00;;;;;;6139508;28;20461;-78
2021/03/13 07:11:45;;;;;;;5.15;1.00;;;9.80;50.10;;;;;;6145154;28;20062;-78
2021/03/13 07:14:46;;;;;;;3.92;1.13;;;9.90;50.00;;;;;;6132835;28;20453;-78
2021/03/13 07:17:51;;;;;;;1.75;0.88;;;9.90;49.90;;;;;;6128135;28;20031;-77
2021/03/13 07:20:52;;;;;;;2.72;1.20;;;9.90;49.80;;;;;;6146672;29;20043;-79
2021/03/13 07:24:02;;;;;;;5.38;1.50;;;10.00;49.80;;;;;;6137368;28;20046;-79
2021/03/13 07:27:05;;;;;;;1.95;0.80;;;10.00;49.70;;;;;;6135561;28;20035;-79
2021/03/13 07:30:14;;;;;;;2.95;1.02;;;10.10;49.60;;;;;;6137608;29;20073;-79
2021/03/13 07:33:17;;;;;;;2.67;1.00;;;10.10;49.50;;;;;;6134221;29;20039;-80
2021/03/13 07:36:22;;;;;;;5.03;1.27;;;10.20;49.30;;;;;;6133863;28;20043;-80
2021/03/13 07:39:32;;;;;;;4.05;0.90;;;10.30;49.10;;;;;;6137736;29;20083;-80
2021/03/13 07:42:36;;;;;;;1.88;1.13;;;10.30;49.00;;;;;;6133944;28;20036;-80
2021/03/13 07:45:38;;;;;;;4.22;1.40;;;10.40;48.80;;;;;;6133244;29;20371;-81
2021/03/13 07:48:40;;;;;;;6.32;1.40;;;10.50;48.60;;;;;;6135123;29;20042;-79
2021/03/13 07:51:42;;;;;;;6.40;1.50;;;10.70;48.50;;;;;;6126758;29;20035;-79
2021/03/13 07:54:51;;;;;;;3.72;1.40;;;10.70;48.30;;;;;;6123153;29;20036;-80
2021/03/13 07:57:53;;;;;;;7.80;1.42;;;10.80;48.20;;;;;;6121777;29;20086;-78
2021/03/13 08:00:55;;;;;;;2.28;1.25;;;11.00;48.10;;;;;;6103678;29;20072;-77
2021/03/13 08:03:56;;;;;;;4.50;1.02;;;11.10;47.80;;;;;;6125192;29;20127;-79
2021/03/13 08:06:59;;;;;;;2.90;0.95;;;11.20;47.60;;;;;;6127858;29;20043;-77
2021/03/13 08:10:00;;;;;;;1.65;1.10;;;11.30;47.50;;;;;;6119493;29;20050;-77
2021/03/13 08:13:01;;;;;;;7.32;1.38;;;11.40;47.20;;;;;;6126324;29;20039;-78
2021/03/13 08:16:06;;;;;;;6.78;1.08;;;11.50;47.00;;;;;;6126242;29;20066;-79
2021/03/13 08:19:31;;;;;;;2.38;1.25;;;11.60;46.90;;;;;;6125594;29;20035;-78
2021/03/13 08:22:31;;;;;;;2.28;1.40;;;11.70;46.70;;;;;;6123860;29;20457;-79
2021/03/13 08:25:34;;;;;;;9.05;1.85;;;11.80;46.40;;;;;;6121511;29;20031;-78
2021/03/13 08:28:50;;;;;;;6.57;1.10;;;11.90;46.30;;;;;;6125177;29;20039;-78
2021/03/13 08:31:51;;;;;;;2.30;1.45;;;12.10;46.20;;;;;;6108311;29;20043;-77
2021/03/13 08:35:06;;;;;;;2.30;1.52;;;12.10;46.00;;;;;;6108692;29;20075;-77
2021/03/13 08:38:07;;;;;;;5.13;1.42;;;12.20;46.00;;;;;;6108314;28;20036;-77
2021/03/13 08:41:08;;;;;;;9.52;1.80;;;12.30;45.80;;;;;;6124687;29;20458;-77
2021/03/13 08:44:16;;;;;;;6.82;1.58;;;12.40;45.90;;;;;;6123169;29;20028;-77
2021/03/13 08:47:17;;;;;;;3.53;1.48;;;12.50;45.70;;;;;;6108315;29;20107;-78
2021/03/13 08:50:45;;;;;;;2.13;1.10;;;12.70;45.60;;;;;;6131435;28;20067;-78
2021/03/13 08:53:47;;;;;;;4.70;1.13;;;13.00;45.40;;;;;;6128430;28;20082;-79
2021/03/13 08:56:52;;;;;;;4.07;1.25;;;13.10;44.90;;;;;;6116875;29;20380;-78
2021/03/13 08:59:54;;;;;;;2.35;0.88;;;13.20;44.40;;;;;;6139106;28;20112;-77
2021/03/13 09:02:56;;;;;;;2.08;1.13;;;13.40;44.10;;;;;;6140586;28;20070;-77
2021/03/13 09:05:59;;;;;;;2.70;1.08;;;13.60;43.40;;;;;;6147452;28;20031;-77
2021/03/13 09:09:09;;;;;;;6.95;1.00;;;13.80;43.00;;;;;;6148708;28;20031;-81
2021/03/13 09:12:12;;;;;;;4.68;1.10;;;13.90;42.40;;;;;;6132696;28;20114;-77
2021/03/13 09:15:15;;;;;;;6.93;1.10;;;14.00;42.20;;;;;;6133027;29;20487;-78
2021/03/13 09:18:17;;;;;;;4.50;1.15;;;14.20;42.00;;;;;;6117729;29;20032;-79
2021/03/13 09:21:38;;;;;;;1.10;0.70;;;14.40;41.60;;;;;;6132462;28;20035;-77
2021/03/13 09:24:40;;;;;;;3.60;0.85;;;14.60;41.40;;;;;;6136048;28;20031;-77
2021/03/13 09:27:41;;;;;;;3.35;1.02;;;14.80;40.60;;;;;;6131691;28;20055;-78
2021/03/13 09:30:42;;;;;;;1.10;0.73;;;14.90;40.20;;;;;;6134627;28;20492;-77
2021/03/13 09:33:43;;;;;;;4.47;0.90;;;15.00;39.60;;;;;;6120280;28;20053;-77
2021/03/13 09:36:46;;;;;;;2.47;1.17;;;15.00;39.60;;;;;;6147705;29;20035;-78
2021/03/13 09:39:49;;;;;;;1.33;0.73;;;15.10;39.80;;;;;;6132327;28;20046;-78
2021/03/13 09:42:51;;;;;;;2.90;0.68;;;15.20;39.30;;;;;;6110455;28;20043;-77
2021/03/13 09:45:53;;;;;;;2.17;1.08;;;15.20;38.40;;;;;;6132773;29;20434;-78
2021/03/13 09:48:54;;;;;;;2.38;0.80;;;15.20;37.80;;;;;;6116634;29;20070;-78
2021/03/13 09:51:55;;;;;;;1.95;0.93;;;15.30;37.80;;;;;;6124182;29;20043;-77
2021/03/13 09:55:10;;;;;;;6.40;0.75;;;15.40;37.90;;;;;;6124083;29;20040;-78
2021/03/13 09:58:17;;;;;;;0.88;0.70;;;15.40;37.50;;;;;;6119169;29;20119;-76
2021/03/13 10:01:18;;;;;;;2.88;1.30;;;15.50;38.00;;;;;;6125589;29;20047;-76
2021/03/13 10:04:19;;;;;;;3.92;1.15;;;15.90;37.70;;;;;;6125660;29;20422;-77
2021/03/13 10:07:20;;;;;;;3.40;1.27;;;15.90;37.40;;;;;;6091812;29;20047;-76
2021/03/13 10:10:26;;;;;;;4.95;1.58;;;16.10;37.10;;;;;;6124791;29;20047;-77
2021/03/13 10:13:29;;;;;;;2.65;1.08;;;16.20;36.70;;;;;;6122812;29;20122;-77
2021/03/13 10:16:33;;;;;;;4.18;1.25;;;16.30;36.70;;;;;;6123768;29;20127;-77
2021/03/13 10:19:36;;;;;;;3.75;1.52;;;16.40;36.40;;;;;;6124496;29;20551;-77
2021/03/13 10:22:37;;;;;;;1.02;0.77;;;16.50;36.30;;;;;;6124538;29;20126;-77
2021/03/13 10:25:40;;;;;;;5.80;1.10;;;16.60;35.70;;;;;;6102931;29;20132;-77
2021/03/13 10:28:50;;;;;;;1.55;1.00;;;16.80;35.50;;;;;;6127660;29;20429;-76
2021/03/13 10:31:51;;;;;;;1.30;0.60;;;16.90;35.10;;;;;;6111997;29;20038;-76
2021/03/13 10:35:07;;;;;;;1.17;0.70;;;17.00;34.20;;;;;;6113033;29;20028;-79
2021/03/13 10:38:08;;;;;;;2.45;0.80;;;17.20;34.30;;;;;;6108171;29;20123;-78
2021/03/13 10:41:16;;;;;;;6.05;1.10;;;17.50;33.70;;;;;;6123803;29;20047;-78
2021/03/13 10:44:18;;;;;;;1.92;0.90;;;17.90;32.80;;;;;;6123917;29;20047;-79
2021/03/13 10:47:28;;;;;;;1.40;0.80;;;18.10;31.90;;;;;;6127844;29;20146;-77
2021/03/13 10:50:29;;;;;;;2.63;1.10;;;18.50;31.90;;;;;;6127581;29;20075;-78
2021/03/13 10:53:40;;;;;;;3.20;0.85;;;18.80;31.30;;;;;;6112275;29;20047;-78
2021/03/13 10:56:43;;;;;;;4.63;1.13;;;19.00;31.00;;;;;;6128358;29;20055;-77
2021/03/13 10:59:44;;;;;;;2.90;1.27;;;19.20;30.80;;;;;;6126178;29;20033;-78
2021/03/13 11:02:45;;;;;;;2.75;0.90;;;19.40;30.80;;;;;;6112278;29;20095;-78
2021/03/13 11:05:51;;;;;;;2.58;0.88;;;19.60;30.60;;;;;;6127970;29;20040;-78
2021/03/13 11:08:53;;;;;;;5.15;1.45;;;19.70;30.50;;;;;;6122962;29;20048;-80
2021/03/13 11:11:54;;;;;;;2.53;0.90;;;19.80;30.00;;;;;;6127128;29;20028;-81
2021/03/13 11:14:55;;;;;;;8.70;0.82;;;19.90;29.60;;;;;;6128283;29;20054;-80
2021/03/13 11:17:57;;;;;;;3.72;1.05;;;20.00;29.20;;;;;;6127890;29;20050;-83
2021/03/13 11:20:58;;;;;;;3.33;0.90;;;20.10;29.20;;;;;;6112159;29;20067;-86
2021/03/13 11:23:59;;;;;;;3.00;0.63;;;20.20;28.90;;;;;;6097942;29;20032;-85
2021/03/13 11:27:01;;;;;;;3.03;0.57;;;20.20;28.60;;;;;;6129467;29;20035;-83
2021/03/13 11:30:03;;;;;;;0.50;0.43;;;20.20;28.30;;;;;;6130605;29;20071;-80
2021/03/13 11:33:05;;;;;;;2.78;0.68;;;20.30;28.40;;;;;;6114426;29;20126;-82
2021/03/13 11:36:07;;;;;;;1.50;0.57;;;20.50;28.20;;;;;;6125364;29;20107;-81
2021/03/13 11:39:08;;;;;;;5.22;0.73;;;20.60;27.60;;;;;;6132304;29;20044;-83
2021/03/13 11:42:09;;;;;;;1.75;0.70;;;20.70;27.40;;;;;;6134135;29;20119;-81
2021/03/13 11:45:13;;;;;;;3.67;0.70;;;20.70;27.50;;;;;;6135035;29;20035;-79
2021/03/13 11:48:14;;;;;;;3.38;1.23;;;20.70;27.40;;;;;;6130762;29;20115;-81
2021/03/13 11:51:16;;;;;;;2.45;0.60;;;20.80;27.60;;;;;;6139903;28;20113;-81
2021/03/13 11:54:18;;;;;;;0.85;0.43;;;21.10;27.20;;;;;;6180691;28;20055;-80
2021/03/13 11:57:21;;;;;;;1.70;0.50;;;21.50;27.00;;;;;;6159500;28;20041;-79
2021/03/13 12:00:23;;;;;;;0.88;0.50;;;22.00;26.70;;;;;;6145941;28;20038;-82
2021/03/13 12:03:25;;;;;;;1.10;0.85;;;22.30;26.80;;;;;;6157942;28;20031;-81
2021/03/13 12:06:26;;;;;;;1.95;0.73;;;22.70;26.00;;;;;;6154013;28;20031;-80
2021/03/13 12:09:27;;;;;;;3.05;0.60;;;23.10;25.40;;;;;;6118789;28;20178;-81
2021/03/13 12:12:28;;;;;;;1.52;0.55;;;23.30;24.90;;;;;;6117076;28;20057;-81
2021/03/13 12:15:29;;;;;;;0.73;0.50;;;23.50;24.90;;;;;;6140048;28;20474;-80
2021/03/13 12:18:32;;;;;;;2.83;0.70;;;24.00;24.50;;;;;;6135713;28;20483;-80
2021/03/13 12:21:33;;;;;;;1.67;0.57;;;24.40;23.70;;;;;;6124522;28;20046;-79
2021/03/13 12:24:35;;;;;;;1.35;0.50;;;24.50;23.50;;;;;;6125736;28;20036;-82
2021/03/13 12:27:39;;;;;;;0.50;0.45;;;24.70;23.30;;;;;;6135993;28;20114;-81
2021/03/13 12:30:40;;;;;;;1.75;0.50;;;25.10;22.60;;;;;;6119438;28;20111;-81
2021/03/13 12:33:41;;;;;;;0.50;0.30;;;25.50;22.10;;;;;;6145726;28;20089;-82
2021/03/13 12:36:42;;;;;;;0.80;0.40;;;26.00;20.50;;;;;;6136344;28;20039;-82
2021/03/13 12:39:43;;;;;;;0.80;0.30;;;26.10;20.20;;;;;;6127783;28;20065;-87
2021/03/13 12:42:44;;;;;;;2.60;0.90;;;26.20;19.70;;;;;;6130048;28;20086;-84
2021/03/13 12:45:46;;;;;;;0.95;0.50;;;26.20;19.70;;;;;;6137992;28;20103;-83
2021/03/13 12:48:48;;;;;;;0.82;0.40;;;25.90;19.90;;;;;;6128158;28;20035;-82
2021/03/13 12:51:49;;;;;;;2.78;0.55;;;25.70;20.20;;;;;;6132770;28;20042;-84
2021/03/13 12:54:52;;;;;;;5.20;0.40;;;25.90;20.30;;;;;;6124000;28;20035;-84
2021/03/13 12:57:53;;;;;;;1.70;0.40;;;26.20;20.20;;;;;;6138708;28;20043;-82
2021/03/13 13:00:55;;;;;;;0.30;0.30;;;26.40;19.80;;;;;;6127172;28;20109;-86
2021/03/13 13:04:01;;;;;;;1.65;0.40;;;26.30;19.60;;;;;;6158811;28;20047;-83
2021/03/13 13:07:02;;;;;;;7.65;0.40;;;25.80;19.50;;;;;;6130153;28;20031;-84
2021/03/13 13:10:04;;;;;;;5.07;0.60;;;25.30;19.80;;;;;;6130519;28;20122;-86
2021/03/13 13:13:11;;;;;;;2.88;1.27;;;25.00;20.20;;;;;;6129243;28;20043;-83
2021/03/13 13:16:16;;;;;;;12.07;0.68;;;24.70;20.50;;;;;;6130184;28;20042;-82
2021/03/13 13:19:17;;;;;;;1.48;0.40;;;24.50;20.50;;;;;;6142792;28;20373;-83
2021/03/13 13:22:18;;;;;;;0.57;0.20;;;24.30;20.70;;;;;;6161677;28;20070;-83
2021/03/13 13:25:22;;;;;;;0.50;0.40;;;24.10;20.60;;;;;;6140569;29;20378;-82
2021/03/13 13:28:24;;;;;;;1.80;0.50;;;23.80;21.00;;;;;;6130930;29;20027;-80
2021/03/13 13:31:25;;;;;;;1.30;0.40;;;23.70;21.10;;;;;;6132125;28;20111;-81
2021/03/13 13:34:27;;;;;;;0.98;0.50;;;23.50;21.10;;;;;;6156220;28;20413;-81
2021/03/13 13:37:27;;;;;;;1.40;0.40;;;23.30;21.30;;;;;;6151652;29;20125;-79
2021/03/13 13:40:29;;;;;;;0.57;0.43;;;23.20;21.30;;;;;;6149065;28;20098;-79
2021/03/13 13:43:32;;;;;;;0.75;0.40;;;23.10;21.40;;;;;;6165431;28;20090;-82
2021/03/13 13:46:33;;;;;;;2.35;0.80;;;23.00;21.60;;;;;;6130901;29;20505;-82
2021/03/13 13:49:34;;;;;;;0.88;0.40;;;22.80;21.60;;;;;;6145889;28;20350;-79
2021/03/13 13:52:35;;;;;;;2.70;0.35;;;22.70;21.90;;;;;;6140092;28;20516;-79
2021/03/13 13:55:39;;;;;;;0.88;0.30;;;22.60;21.60;;;;;;6128248;28;20202;-78
2021/03/13 13:58:40;;;;;;;3.60;0.47;;;22.40;21.60;;;;;;6129102;28;20031;-78
2021/03/13 14:01:42;;;;;;;1.15;0.50;;;22.10;21.50;;;;;;6115779;29;20126;-80
2021/03/13 14:04:43;;;;;;;0.63;0.38;;;21.90;21.60;;;;;;6131419;29;20062;-79
2021/03/13 14:07:44;;;;;;;1.30;0.50;;;21.70;21.80;;;;;;6147937;28;20063;-78
2021/03/13 14:10:45;;;;;;;1.15;0.40;;;21.60;22.00;;;;;;6115994;28;20077;-80
2021/03/13 14:13:46;;;;;;;1.92;0.75;;;21.50;22.10;;;;;;6146998;29;20047;-80
2021/03/13 14:16:48;;;;;;;3.38;0.50;;;21.40;22.20;;;;;;6146129;28;20041;-82
2021/03/13 14:19:49;;;;;;;3.25;0.40;;;21.30;22.40;;;;;;6147753;28;20041;-81
2021/03/13 14:22:50;;;;;;;0.70;0.30;;;21.10;22.70;;;;;;6125799;29;20032;-79
2021/03/13 14:25:51;;;;;;;1.20;0.52;;;20.90;22.90;;;;;;6137001;28;20114;-80
2021/03/13 14:28:56;;;;;;;3.70;1.20;;;21.00;23.20;;;;;;6117201;29;20043;-80
2021/03/13 14:31:57;;;;;;;1.60;0.52;;;21.00;23.10;;;;;;6153281;28;20057;-79
2021/03/13 14:34:58;;;;;;;1.88;0.70;;;21.00;22.90;;;;;;6153493;29;20063;-80
2021/03/13 14:38:00;;;;;;;1.15;0.60;;;21.00;23.10;;;;;;6134250;28;20106;-81
2021/03/13 14:41:02;;;;;;;1.85;0.43;;;21.00;23.00;;;;;;6152310;28;20039;-81
2021/03/13 14:44:06;;;;;;;0.73;0.60;;;20.90;23.10;;;;;;6129111;29;20035;-84
2021/03/13 14:47:09;;;;;;;1.75;0.60;;;20.80;23.20;;;;;;6132292;28;20043;-82
2021/03/13 14:50:12;;;;;;;0.60;0.45;;;20.80;23.40;;;;;;6133069;29;20051;-81
2021/03/13 14:53:14;;;;;;;0.95;0.55;;;20.70;23.50;;;;;;6117906;29;20075;-79
2021/03/13 14:56:17;;;;;;;0.85;0.35;;;20.60;23.50;;;;;;6118651;29;20138;-80
2021/03/13 14:59:18;;;;;;;4.53;0.50;;;20.50;23.50;;;;;;6124342;29;20122;-81
2021/03/13 15:02:19;;;;;;;0.88;0.50;;;20.50;23.70;;;;;;6151730;28;20055;-82
2021/03/13 15:05:21;;;;;;;0.52;0.40;;;20.50;23.90;;;;;;6119393;28;20051;-82
2021/03/13 15:08:22;;;;;;;0.52;0.32;;;20.50;23.90;;;;;;6111155;28;20060;-81
2021/03/13 15:11:23;;;;;;;2.55;0.40;;;20.40;23.90;;;;;;6130523;28;20067;-82
2021/03/13 15:14:25;;;;;;;0.52;0.30;;;20.50;24.10;;;;;;6157328;28;20043;-82
2021/03/13 15:17:26;;;;;;;2.38;0.50;;;20.40;24.20;;;;;;6136938;28;20036;-80
2021/03/13 15:20:30;;;;;;;0.90;0.38;;;20.30;24.20;;;;;;6138773;28;20126;-81
2021/03/13 15:23:31;;;;;;;2.53;0.30;;;20.40;24.20;;;;;;6140568;28;20035;-80
2021/03/13 15:26:32;;;;;;;0.47;0.47;;;20.20;24.30;;;;;;6155559;28;20368;-79
2021/03/13 15:29:33;;;;;;;1.85;0.40;;;20.10;24.30;;;;;;6126684;28;20079;-80
2021/03/13 15:32:34;;;;;;;0.60;0.32;;;20.10;24.40;;;;;;6137893;29;20437;-80
2021/03/13 15:35:35;;;;;;;1.52;0.60;;;20.00;24.50;;;;;;6117249;29;20083;-79
2021/03/13 15:38:37;;;;;;;0.57;0.47;;;19.90;24.50;;;;;;6110702;29;20047;-81
2021/03/13 15:41:39;;;;;;;2.28;0.60;;;19.90;24.60;;;;;;6133308;28;20047;-80
2021/03/13 15:44:40;;;;;;;0.73;0.32;;;19.80;24.60;;;;;;6144309;28;20051;-80
2021/03/13 15:47:43;;;;;;;2.85;0.40;;;19.80;24.80;;;;;;6137158;29;20035;-80
2021/03/13 15:50:45;;;;;;;0.60;0.50;;;19.70;24.90;;;;;;6125164;29;20039;-80
2021/03/13 15:53:46;;;;;;;2.05;0.68;;;19.60;25.00;;;;;;6124235;29;20040;-79
2021/03/13 15:56:48;;;;;;;1.52;0.43;;;19.50;25.00;;;;;;6125723;29;20449;-80